L'viv, Ukraine
Current Conditions -  °F | °C
As of 4:30 AM on Sunday 21 Dec 2014 (Local Time) from UKLL Reporting Station
Rain Showers Rain Showers  
Wind Chill: 29°   Ceiling: 1500
Heat Index: 37°   Visibility: 6mi
Dew Point: 34°   Wind: 13mph
Humidity: 87%   Direction: 250°WSW
Pressure: 29.8"   Gusts: NA
Location:  49.84°N, 24.03°E
Report Text: UKLL 210130Z 25006MPS 9999 -SHRA SCT015CB BKN015 03/01 Q1009 31CLRD70 TEMPO 29010G17MPS
Loading
Personal Weather Stations






























Interactive Weather Map New forecast layout! Learn more

10-Day Weather Forecast

Advertisements
Track Severe Weather on mobile